sensor_id;sensor_type;location;lat;lon;timestamp;P1;durP1;ratioP1;P2;durP2;ratioP2
31618;SDS011;18230;51.502;7.108;2023-06-10T00:04:29;15.77;;;7.90;;
31618;SDS011;18230;51.502;7.108;2023-06-10T00:09:30;14.50;;;6.78;;
31618;SDS011;18230;51.502;7.108;2023-06-10T00:14:30;10.60;;;7.35;;
31618;SDS011;18230;51.502;7.108;2023-06-10T00:19:31;11.18;;;7.20;;
31618;SDS011;18230;51.502;7.108;2023-06-10T00:24:32;10.75;;;7.45;;
31618;SDS011;18230;51.502;7.108;2023-06-10T00:29:32;8.45;;;6.63;;
31618;SDS011;18230;51.502;7.108;2023-06-10T00:34:33;11.70;;;7.03;;
31618;SDS011;18230;51.502;7.108;2023-06-10T00:39:34;14.55;;;7.95;;
31618;SDS011;18230;51.502;7.108;2023-06-10T00:44:34;11.35;;;7.55;;
31618;SDS011;18230;51.502;7.108;2023-06-10T00:49:35;13.32;;;7.75;;
31618;SDS011;18230;51.502;7.108;2023-06-10T00:54:36;10.52;;;7.43;;
31618;SDS011;18230;51.502;7.108;2023-06-10T00:59:39;10.63;;;7.57;;
31618;SDS011;18230;51.502;7.108;2023-06-10T01:04:41;11.52;;;8.00;;
31618;SDS011;18230;51.502;7.108;2023-06-10T01:09:49;15.30;;;9.30;;
31618;SDS011;18230;51.502;7.108;2023-06-10T01:14:51;13.88;;;9.02;;
31618;SDS011;18230;51.502;7.108;2023-06-10T01:19:56;12.25;;;8.15;;
31618;SDS011;18230;51.502;7.108;2023-06-10T01:24:58;14.02;;;7.75;;
31618;SDS011;18230;51.502;7.108;2023-06-10T01:30:00;9.70;;;8.07;;
31618;SDS011;18230;51.502;7.108;2023-06-10T01:35:07;11.57;;;8.25;;
31618;SDS011;18230;51.502;7.108;2023-06-10T01:40:09;18.63;;;13.20;;
31618;SDS011;18230;51.502;7.108;2023-06-10T01:45:11;17.42;;;10.85;;
31618;SDS011;18230;51.502;7.108;2023-06-10T01:50:12;17.15;;;9.77;;
31618;SDS011;18230;51.502;7.108;2023-06-10T01:55:13;16.63;;;10.50;;
31618;SDS011;18230;51.502;7.108;2023-06-10T02:00:13;18.48;;;10.25;;
31618;SDS011;18230;51.502;7.108;2023-06-10T02:05:14;14.18;;;10.70;;
31618;SDS011;18230;51.502;7.108;2023-06-10T02:10:15;18.60;;;11.68;;
31618;SDS011;18230;51.502;7.108;2023-06-10T02:15:16;17.52;;;12.65;;
31618;SDS011;18230;51.502;7.108;2023-06-10T02:20:16;20.60;;;12.63;;
31618;SDS011;18230;51.502;7.108;2023-06-10T02:25:17;16.23;;;11.90;;
31618;SDS011;18230;51.502;7.108;2023-06-10T02:30:18;16.83;;;12.55;;
31618;SDS011;18230;51.502;7.108;2023-06-10T02:35:18;16.23;;;12.85;;
31618;SDS011;18230;51.502;7.108;2023-06-10T02:40:19;18.50;;;12.32;;
31618;SDS011;18230;51.502;7.108;2023-06-10T02:45:20;23.00;;;12.27;;
31618;SDS011;18230;51.502;7.108;2023-06-10T02:50:21;17.00;;;13.55;;
31618;SDS011;18230;51.502;7.108;2023-06-10T02:55:21;17.83;;;12.75;;
31618;SDS011;18230;51.502;7.108;2023-06-10T03:00:26;15.10;;;12.88;;
31618;SDS011;18230;51.502;7.108;2023-06-10T03:05:27;19.75;;;13.23;;
31618;SDS011;18230;51.502;7.108;2023-06-10T03:10:27;16.38;;;13.07;;
31618;SDS011;18230;51.502;7.108;2023-06-10T03:15:28;17.02;;;13.02;;
31618;SDS011;18230;51.502;7.108;2023-06-10T03:20:32;21.67;;;14.38;;
31618;SDS011;18230;51.502;7.108;2023-06-10T03:25:37;18.98;;;14.30;;
31618;SDS011;18230;51.502;7.108;2023-06-10T03:30:37;15.90;;;13.52;;
31618;SDS011;18230;51.502;7.108;2023-06-10T03:35:38;18.42;;;13.77;;
31618;SDS011;18230;51.502;7.108;2023-06-10T03:40:38;17.08;;;13.52;;
31618;SDS011;18230;51.502;7.108;2023-06-10T03:45:39;19.70;;;13.65;;
31618;SDS011;18230;51.502;7.108;2023-06-10T03:50:41;19.25;;;13.32;;
31618;SDS011;18230;51.502;7.108;2023-06-10T03:55:41;23.75;;;13.55;;
31618;SDS011;18230;51.502;7.108;2023-06-10T04:00:42;19.17;;;13.10;;
31618;SDS011;18230;51.502;7.108;2023-06-10T04:05:43;17.85;;;13.52;;
31618;SDS011;18230;51.502;7.108;2023-06-10T04:10:43;20.27;;;14.02;;
31618;SDS011;18230;51.502;7.108;2023-06-10T04:15:44;17.17;;;12.73;;
31618;SDS011;18230;51.502;7.108;2023-06-10T04:20:45;19.33;;;13.10;;
31618;SDS011;18230;51.502;7.108;2023-06-10T04:25:45;15.85;;;12.13;;
31618;SDS011;18230;51.502;7.108;2023-06-10T04:30:46;21.27;;;12.55;;
31618;SDS011;18230;51.502;7.108;2023-06-10T04:35:48;19.92;;;12.10;;
31618;SDS011;18230;51.502;7.108;2023-06-10T04:40:48;14.18;;;11.75;;
31618;SDS011;18230;51.502;7.108;2023-06-10T04:45:49;14.77;;;11.18;;
31618;SDS011;18230;51.502;7.108;2023-06-10T04:50:50;15.95;;;11.25;;
31618;SDS011;18230;51.502;7.108;2023-06-10T04:55:50;16.92;;;10.38;;
31618;SDS011;18230;51.502;7.108;2023-06-10T05:00:51;13.65;;;10.77;;
31618;SDS011;18230;51.502;7.108;2023-06-10T05:05:52;14.48;;;9.80;;
31618;SDS011;18230;51.502;7.108;2023-06-10T05:10:52;13.05;;;10.32;;
31618;SDS011;18230;51.502;7.108;2023-06-10T05:15:53;16.17;;;10.70;;
31618;SDS011;18230;51.502;7.108;2023-06-10T05:20:53;15.13;;;9.98;;
31618;SDS011;18230;51.502;7.108;2023-06-10T05:25:54;13.00;;;8.80;;
31618;SDS011;18230;51.502;7.108;2023-06-10T05:30:55;15.95;;;8.68;;
31618;SDS011;18230;51.502;7.108;2023-06-10T05:35:55;12.20;;;8.23;;
31618;SDS011;18230;51.502;7.108;2023-06-10T05:40:56;14.40;;;8.15;;
31618;SDS011;18230;51.502;7.108;2023-06-10T05:45:58;11.82;;;8.10;;
31618;SDS011;18230;51.502;7.108;2023-06-10T05:50:59;17.38;;;8.18;;
31618;SDS011;18230;51.502;7.108;2023-06-10T05:56:00;9.32;;;7.15;;
31618;SDS011;18230;51.502;7.108;2023-06-10T06:01:01;9.13;;;6.45;;
31618;SDS011;18230;51.502;7.108;2023-06-10T06:06:02;14.32;;;7.25;;
31618;SDS011;18230;51.502;7.108;2023-06-10T06:11:03;8.98;;;6.75;;
31618;SDS011;18230;51.502;7.108;2023-06-10T06:16:04;12.02;;;8.38;;
31618;SDS011;18230;51.502;7.108;2023-06-10T06:21:04;13.38;;;7.28;;
31618;SDS011;18230;51.502;7.108;2023-06-10T06:26:05;13.63;;;7.05;;
31618;SDS011;18230;51.502;7.108;2023-06-10T06:31:06;8.55;;;5.88;;
31618;SDS011;18230;51.502;7.108;2023-06-10T06:36:07;11.50;;;6.35;;
31618;SDS011;18230;51.502;7.108;2023-06-10T06:41:08;11.40;;;6.15;;
31618;SDS011;18230;51.502;7.108;2023-06-10T06:46:08;10.55;;;6.43;;
31618;SDS011;18230;51.502;7.108;2023-06-10T06:51:09;13.00;;;6.30;;
31618;SDS011;18230;51.502;7.108;2023-06-10T06:56:10;11.27;;;5.90;;
31618;SDS011;18230;51.502;7.108;2023-06-10T07:01:12;11.75;;;6.18;;
31618;SDS011;18230;51.502;7.108;2023-06-10T07:06:12;11.65;;;5.63;;
31618;SDS011;18230;51.502;7.108;2023-06-10T07:11:13;8.40;;;5.70;;
31618;SDS011;18230;51.502;7.108;2023-06-10T07:16:14;12.07;;;5.78;;
31618;SDS011;18230;51.502;7.108;2023-06-10T07:21:15;12.18;;;6.00;;
31618;SDS011;18230;51.502;7.108;2023-06-10T07:26:15;10.00;;;5.80;;
31618;SDS011;18230;51.502;7.108;2023-06-10T07:31:16;10.70;;;5.85;;
31618;SDS011;18230;51.502;7.108;2023-06-10T07:36:17;12.45;;;7.05;;
31618;SDS011;18230;51.502;7.108;2023-06-10T07:41:17;11.48;;;6.28;;
31618;SDS011;18230;51.502;7.108;2023-06-10T07:46:19;11.85;;;6.70;;
31618;SDS011;18230;51.502;7.108;2023-06-10T07:51:23;10.82;;;6.70;;
31618;SDS011;18230;51.502;7.108;2023-06-10T07:56:24;7.63;;;5.25;;
31618;SDS011;18230;51.502;7.108;2023-06-10T08:01:25;10.38;;;5.95;;
31618;SDS011;18230;51.502;7.108;2023-06-10T08:06:26;17.67;;;5.90;;
31618;SDS011;18230;51.502;7.108;2023-06-10T08:11:27;10.13;;;5.63;;
31618;SDS011;18230;51.502;7.108;2023-06-10T08:16:28;8.15;;;6.05;;
31618;SDS011;18230;51.502;7.108;2023-06-10T08:21:35;18.83;;;7.93;;
31618;SDS011;18230;51.502;7.108;2023-06-10T08:26:51;8.20;;;5.50;;
31618;SDS011;18230;51.502;7.108;2023-06-10T08:31:52;10.48;;;5.30;;
31618;SDS011;18230;51.502;7.108;2023-06-10T08:36:53;8.73;;;5.40;;
31618;SDS011;18230;51.502;7.108;2023-06-10T08:47:25;12.02;;;5.80;;
31618;SDS011;18230;51.502;7.108;2023-06-10T08:52:31;9.48;;;5.68;;
31618;SDS011;18230;51.502;7.108;2023-06-10T08:57:37;7.40;;;5.55;;
31618;SDS011;18230;51.502;7.108;2023-06-10T09:02:38;10.00;;;5.40;;
31618;SDS011;18230;51.502;7.108;2023-06-10T09:07:39;11.65;;;6.22;;
31618;SDS011;18230;51.502;7.108;2023-06-10T09:12:39;11.98;;;5.68;;
31618;SDS011;18230;51.502;7.108;2023-06-10T09:17:40;9.75;;;6.78;;
31618;SDS011;18230;51.502;7.108;2023-06-10T09:22:41;12.00;;;5.55;;
31618;SDS011;18230;51.502;7.108;2023-06-10T09:27:47;8.20;;;5.60;;
31618;SDS011;18230;51.502;7.108;2023-06-10T09:32:54;9.48;;;5.40;;
31618;SDS011;18230;51.502;7.108;2023-06-10T09:37:57;10.70;;;5.45;;
31618;SDS011;18230;51.502;7.108;2023-06-10T09:43:00;17.45;;;5.47;;
31618;SDS011;18230;51.502;7.108;2023-06-10T09:48:00;10.50;;;5.10;;
31618;SDS011;18230;51.502;7.108;2023-06-10T09:53:01;10.05;;;5.85;;
31618;SDS011;18230;51.502;7.108;2023-06-10T09:58:03;9.43;;;5.40;;
31618;SDS011;18230;51.502;7.108;2023-06-10T10:03:04;10.57;;;6.18;;
31618;SDS011;18230;51.502;7.108;2023-06-10T10:08:06;11.48;;;6.72;;
31618;SDS011;18230;51.502;7.108;2023-06-10T10:13:08;10.88;;;5.97;;
31618;SDS011;18230;51.502;7.108;2023-06-10T10:18:10;10.38;;;5.47;;
31618;SDS011;18230;51.502;7.108;2023-06-10T10:23:13;11.45;;;5.93;;
31618;SDS011;18230;51.502;7.108;2023-06-10T10:28:17;10.75;;;5.57;;
31618;SDS011;18230;51.502;7.108;2023-06-10T10:38:36;9.20;;;7.20;;
31618;SDS011;18230;51.502;7.108;2023-06-10T10:43:37;16.70;;;7.55;;
31618;SDS011;18230;51.502;7.108;2023-06-10T10:48:38;7.45;;;6.20;;
31618;SDS011;18230;51.502;7.108;2023-06-10T10:53:41;10.43;;;6.28;;
31618;SDS011;18230;51.502;7.108;2023-06-10T10:59:01;8.43;;;5.82;;
31618;SDS011;18230;51.502;7.108;2023-06-10T11:04:07;14.15;;;6.65;;
31618;SDS011;18230;51.502;7.108;2023-06-10T11:09:27;11.00;;;6.70;;
31618;SDS011;18230;51.502;7.108;2023-06-10T11:14:31;12.93;;;6.22;;
31618;SDS011;18230;51.502;7.108;2023-06-10T11:19:33;10.20;;;7.03;;
31618;SDS011;18230;51.502;7.108;2023-06-10T11:24:35;14.00;;;7.15;;
31618;SDS011;18230;51.502;7.108;2023-06-10T11:29:37;8.20;;;6.28;;
31618;SDS011;18230;51.502;7.108;2023-06-10T11:34:38;6.25;;;5.65;;
31618;SDS011;18230;51.502;7.108;2023-06-10T11:39:38;11.25;;;7.13;;
31618;SDS011;18230;51.502;7.108;2023-06-10T11:44:39;13.48;;;8.35;;
31618;SDS011;18230;51.502;7.108;2023-06-10T11:49:57;11.98;;;6.50;;
31618;SDS011;18230;51.502;7.108;2023-06-10T11:54:57;11.00;;;6.50;;
31618;SDS011;18230;51.502;7.108;2023-06-10T12:00:03;7.50;;;5.80;;
31618;SDS011;18230;51.502;7.108;2023-06-10T12:05:14;10.52;;;6.40;;
31618;SDS011;18230;51.502;7.108;2023-06-10T12:10:15;9.25;;;5.93;;
31618;SDS011;18230;51.502;7.108;2023-06-10T12:15:23;9.45;;;5.72;;
31618;SDS011;18230;51.502;7.108;2023-06-10T12:20:26;10.85;;;6.85;;
31618;SDS011;18230;51.502;7.108;2023-06-10T12:25:28;12.48;;;6.10;;
31618;SDS011;18230;51.502;7.108;2023-06-10T12:30:29;11.55;;;6.93;;
31618;SDS011;18230;51.502;7.108;2023-06-10T12:35:31;10.25;;;6.40;;
31618;SDS011;18230;51.502;7.108;2023-06-10T12:40:36;10.60;;;6.35;;
31618;SDS011;18230;51.502;7.108;2023-06-10T12:45:40;11.10;;;6.25;;
31618;SDS011;18230;51.502;7.108;2023-06-10T12:50:49;8.30;;;6.68;;
31618;SDS011;18230;51.502;7.108;2023-06-10T12:55:54;9.07;;;6.40;;
31618;SDS011;18230;51.502;7.108;2023-06-10T13:00:55;10.88;;;6.32;;
31618;SDS011;18230;51.502;7.108;2023-06-10T13:05:56;9.05;;;6.57;;
31618;SDS011;18230;51.502;7.108;2023-06-10T13:10:57;8.43;;;7.43;;
31618;SDS011;18230;51.502;7.108;2023-06-10T13:15:58;9.40;;;6.88;;
31618;SDS011;18230;51.502;7.108;2023-06-10T13:20:59;8.52;;;6.45;;
31618;SDS011;18230;51.502;7.108;2023-06-10T13:26:00;11.15;;;7.05;;
31618;SDS011;18230;51.502;7.108;2023-06-10T13:31:02;8.88;;;6.95;;
31618;SDS011;18230;51.502;7.108;2023-06-10T13:36:03;9.88;;;7.22;;
31618;SDS011;18230;51.502;7.108;2023-06-10T13:41:05;8.30;;;6.50;;
31618;SDS011;18230;51.502;7.108;2023-06-10T13:46:06;13.95;;;6.63;;
31618;SDS011;18230;51.502;7.108;2023-06-10T13:51:07;12.57;;;7.32;;
31618;SDS011;18230;51.502;7.108;2023-06-10T13:56:09;11.00;;;7.13;;
31618;SDS011;18230;51.502;7.108;2023-06-10T14:01:10;10.15;;;7.03;;
31618;SDS011;18230;51.502;7.108;2023-06-10T14:06:10;10.25;;;6.43;;
31618;SDS011;18230;51.502;7.108;2023-06-10T14:11:15;10.30;;;6.38;;
31618;SDS011;18230;51.502;7.108;2023-06-10T14:16:16;11.65;;;6.68;;
31618;SDS011;18230;51.502;7.108;2023-06-10T14:21:17;9.15;;;5.97;;
31618;SDS011;18230;51.502;7.108;2023-06-10T14:26:17;10.30;;;6.45;;
31618;SDS011;18230;51.502;7.108;2023-06-10T14:31:19;10.18;;;6.18;;
31618;SDS011;18230;51.502;7.108;2023-06-10T14:36:19;10.20;;;6.18;;
31618;SDS011;18230;51.502;7.108;2023-06-10T14:41:20;8.15;;;6.25;;
31618;SDS011;18230;51.502;7.108;2023-06-10T14:46:22;10.88;;;6.15;;
31618;SDS011;18230;51.502;7.108;2023-06-10T14:51:23;12.80;;;6.22;;
31618;SDS011;18230;51.502;7.108;2023-06-10T14:56:23;9.48;;;7.28;;
31618;SDS011;18230;51.502;7.108;2023-06-10T15:01:25;9.82;;;7.75;;
31618;SDS011;18230;51.502;7.108;2023-06-10T15:06:26;12.30;;;6.13;;
31618;SDS011;18230;51.502;7.108;2023-06-10T15:11:27;9.35;;;6.82;;
31618;SDS011;18230;51.502;7.108;2023-06-10T15:16:28;12.75;;;8.63;;
31618;SDS011;18230;51.502;7.108;2023-06-10T15:21:29;9.88;;;6.55;;
31618;SDS011;18230;51.502;7.108;2023-06-10T15:26:30;9.80;;;7.03;;
31618;SDS011;18230;51.502;7.108;2023-06-10T15:31:31;8.77;;;7.13;;
31618;SDS011;18230;51.502;7.108;2023-06-10T15:36:31;9.18;;;7.55;;
31618;SDS011;18230;51.502;7.108;2023-06-10T15:41:35;13.82;;;6.15;;
31618;SDS011;18230;51.502;7.108;2023-06-10T15:46:36;11.65;;;6.05;;
31618;SDS011;18230;51.502;7.108;2023-06-10T15:51:37;11.85;;;6.38;;
31618;SDS011;18230;51.502;7.108;2023-06-10T15:56:38;12.90;;;6.50;;
31618;SDS011;18230;51.502;7.108;2023-06-10T16:01:39;9.25;;;6.28;;
31618;SDS011;18230;51.502;7.108;2023-06-10T16:06:40;9.60;;;6.70;;
31618;SDS011;18230;51.502;7.108;2023-06-10T16:11:41;54.17;;;24.00;;
31618;SDS011;18230;51.502;7.108;2023-06-10T16:16:42;11.05;;;7.70;;
31618;SDS011;18230;51.502;7.108;2023-06-10T16:21:42;8.00;;;6.30;;
31618;SDS011;18230;51.502;7.108;2023-06-10T16:26:43;8.23;;;6.53;;
31618;SDS011;18230;51.502;7.108;2023-06-10T16:31:44;7.78;;;5.75;;
31618;SDS011;18230;51.502;7.108;2023-06-10T16:36:45;8.75;;;6.03;;
31618;SDS011;18230;51.502;7.108;2023-06-10T16:41:46;10.02;;;6.43;;
31618;SDS011;18230;51.502;7.108;2023-06-10T16:46:47;7.30;;;5.60;;
31618;SDS011;18230;51.502;7.108;2023-06-10T16:51:47;9.65;;;6.07;;
31618;SDS011;18230;51.502;7.108;2023-06-10T16:56:48;9.60;;;5.80;;
31618;SDS011;18230;51.502;7.108;2023-06-10T17:01:49;9.43;;;5.78;;
31618;SDS011;18230;51.502;7.108;2023-06-10T17:06:50;10.00;;;6.40;;
31618;SDS011;18230;51.502;7.108;2023-06-10T17:11:51;8.82;;;6.97;;
31618;SDS011;18230;51.502;7.108;2023-06-10T17:16:51;9.20;;;6.10;;
31618;SDS011;18230;51.502;7.108;2023-06-10T17:21:52;9.85;;;5.78;;
31618;SDS011;18230;51.502;7.108;2023-06-10T17:26:53;6.90;;;6.20;;
31618;SDS011;18230;51.502;7.108;2023-06-10T17:31:54;9.55;;;6.57;;
31618;SDS011;18230;51.502;7.108;2023-06-10T17:36:55;13.40;;;6.43;;
31618;SDS011;18230;51.502;7.108;2023-06-10T17:41:55;13.00;;;6.65;;
31618;SDS011;18230;51.502;7.108;2023-06-10T17:46:56;10.23;;;6.38;;
31618;SDS011;18230;51.502;7.108;2023-06-10T17:51:57;8.93;;;6.10;;
31618;SDS011;18230;51.502;7.108;2023-06-10T17:56:58;9.68;;;6.22;;
31618;SDS011;18230;51.502;7.108;2023-06-10T18:01:59;10.60;;;5.78;;
31618;SDS011;18230;51.502;7.108;2023-06-10T18:07:00;7.40;;;5.65;;
31618;SDS011;18230;51.502;7.108;2023-06-10T18:12:00;7.63;;;5.78;;
31618;SDS011;18230;51.502;7.108;2023-06-10T18:17:01;9.52;;;5.93;;
31618;SDS011;18230;51.502;7.108;2023-06-10T18:22:02;10.77;;;7.13;;
31618;SDS011;18230;51.502;7.108;2023-06-10T18:27:03;7.25;;;6.35;;
31618;SDS011;18230;51.502;7.108;2023-06-10T18:32:04;8.05;;;6.30;;
31618;SDS011;18230;51.502;7.108;2023-06-10T18:37:06;14.10;;;6.28;;
31618;SDS011;18230;51.502;7.108;2023-06-10T18:42:07;9.80;;;6.93;;
31618;SDS011;18230;51.502;7.108;2023-06-10T18:47:09;10.20;;;6.68;;
31618;SDS011;18230;51.502;7.108;2023-06-10T18:52:10;13.48;;;7.07;;
31618;SDS011;18230;51.502;7.108;2023-06-10T18:57:10;8.73;;;6.35;;
31618;SDS011;18230;51.502;7.108;2023-06-10T19:02:13;11.45;;;6.22;;
31618;SDS011;18230;51.502;7.108;2023-06-10T19:07:15;8.80;;;6.82;;
31618;SDS011;18230;51.502;7.108;2023-06-10T19:12:15;10.48;;;6.60;;
31618;SDS011;18230;51.502;7.108;2023-06-10T19:17:16;10.68;;;7.15;;
31618;SDS011;18230;51.502;7.108;2023-06-10T19:22:17;11.52;;;6.63;;
31618;SDS011;18230;51.502;7.108;2023-06-10T19:27:18;12.82;;;6.55;;
31618;SDS011;18230;51.502;7.108;2023-06-10T19:32:19;7.68;;;6.00;;
31618;SDS011;18230;51.502;7.108;2023-06-10T19:37:20;12.30;;;7.72;;
31618;SDS011;18230;51.502;7.108;2023-06-10T19:42:20;8.98;;;6.35;;
31618;SDS011;18230;51.502;7.108;2023-06-10T19:47:21;10.38;;;6.30;;
31618;SDS011;18230;51.502;7.108;2023-06-10T19:52:23;9.88;;;6.32;;
31618;SDS011;18230;51.502;7.108;2023-06-10T19:57:24;9.60;;;6.22;;
31618;SDS011;18230;51.502;7.108;2023-06-10T20:02:25;15.38;;;6.57;;
31618;SDS011;18230;51.502;7.108;2023-06-10T20:07:26;9.27;;;5.80;;
31618;SDS011;18230;51.502;7.108;2023-06-10T20:12:27;10.32;;;6.85;;
31618;SDS011;18230;51.502;7.108;2023-06-10T20:17:28;9.95;;;7.15;;
31618;SDS011;18230;51.502;7.108;2023-06-10T20:22:29;14.32;;;6.78;;
31618;SDS011;18230;51.502;7.108;2023-06-10T20:27:30;12.50;;;6.57;;
31618;SDS011;18230;51.502;7.108;2023-06-10T20:32:30;11.98;;;6.50;;
31618;SDS011;18230;51.502;7.108;2023-06-10T20:37:31;8.45;;;6.72;;
31618;SDS011;18230;51.502;7.108;2023-06-10T20:42:32;13.48;;;6.18;;
31618;SDS011;18230;51.502;7.108;2023-06-10T20:47:32;10.32;;;7.55;;
31618;SDS011;18230;51.502;7.108;2023-06-10T20:52:33;12.02;;;8.65;;
31618;SDS011;18230;51.502;7.108;2023-06-10T20:57:34;12.02;;;7.45;;
31618;SDS011;18230;51.502;7.108;2023-06-10T21:02:35;9.57;;;6.18;;
31618;SDS011;18230;51.502;7.108;2023-06-10T21:07:36;8.50;;;6.45;;
31618;SDS011;18230;51.502;7.108;2023-06-10T21:12:37;11.75;;;6.68;;
31618;SDS011;18230;51.502;7.108;2023-06-10T21:17:38;13.50;;;6.70;;
31618;SDS011;18230;51.502;7.108;2023-06-10T21:22:41;16.35;;;7.97;;
31618;SDS011;18230;51.502;7.108;2023-06-10T21:27:42;9.00;;;6.82;;
31618;SDS011;18230;51.502;7.108;2023-06-10T21:32:43;9.43;;;7.07;;
31618;SDS011;18230;51.502;7.108;2023-06-10T21:37:44;9.45;;;6.25;;
31618;SDS011;18230;51.502;7.108;2023-06-10T21:42:45;11.05;;;7.03;;
31618;SDS011;18230;51.502;7.108;2023-06-10T21:47:46;9.77;;;6.57;;
31618;SDS011;18230;51.502;7.108;2023-06-10T21:52:47;9.48;;;6.53;;
31618;SDS011;18230;51.502;7.108;2023-06-10T21:57:48;11.13;;;7.15;;
31618;SDS011;18230;51.502;7.108;2023-06-10T22:02:49;10.18;;;6.72;;
31618;SDS011;18230;51.502;7.108;2023-06-10T22:07:50;8.20;;;6.35;;
31618;SDS011;18230;51.502;7.108;2023-06-10T22:12:51;10.05;;;7.60;;
31618;SDS011;18230;51.502;7.108;2023-06-10T22:17:52;12.60;;;9.80;;
31618;SDS011;18230;51.502;7.108;2023-06-10T22:22:56;14.25;;;8.23;;
31618;SDS011;18230;51.502;7.108;2023-06-10T22:27:56;12.88;;;7.65;;
31618;SDS011;18230;51.502;7.108;2023-06-10T22:32:57;12.00;;;8.07;;
31618;SDS011;18230;51.502;7.108;2023-06-10T22:37:58;22.63;;;8.73;;
31618;SDS011;18230;51.502;7.108;2023-06-10T22:42:59;11.68;;;7.38;;
31618;SDS011;18230;51.502;7.108;2023-06-10T22:48:00;10.40;;;7.50;;
31618;SDS011;18230;51.502;7.108;2023-06-10T22:53:01;14.15;;;10.52;;
31618;SDS011;18230;51.502;7.108;2023-06-10T22:58:02;12.65;;;8.00;;
31618;SDS011;18230;51.502;7.108;2023-06-10T23:03:02;11.75;;;8.75;;
31618;SDS011;18230;51.502;7.108;2023-06-10T23:08:03;15.90;;;8.13;;
31618;SDS011;18230;51.502;7.108;2023-06-10T23:13:04;9.63;;;7.68;;
31618;SDS011;18230;51.502;7.108;2023-06-10T23:18:05;12.77;;;8.15;;
31618;SDS011;18230;51.502;7.108;2023-06-10T23:23:06;10.63;;;7.00;;
31618;SDS011;18230;51.502;7.108;2023-06-10T23:28:07;11.55;;;7.60;;
31618;SDS011;18230;51.502;7.108;2023-06-10T23:33:07;12.65;;;8.07;;
31618;SDS011;18230;51.502;7.108;2023-06-10T23:38:08;9.77;;;7.13;;
31618;SDS011;18230;51.502;7.108;2023-06-10T23:43:11;9.52;;;7.80;;
31618;SDS011;18230;51.502;7.108;2023-06-10T23:48:12;11.60;;;7.90;;
31618;SDS011;18230;51.502;7.108;2023-06-10T23:53:13;12.40;;;8.02;;
31618;SDS011;18230;51.502;7.108;2023-06-10T23:58:14;12.27;;;8.38;;
